Time;durP1;ratioP1;P1;durP2;ratioP2;P2;SDS_P1;SDS_P2;PMS_P1;PMS_P2;Temp;Humidity;BMP_temperature;BMP_pressure;BME280_temperature;BME280_humidity;BME280_pressure;Samples;Min_cycle;Max_cycle;Signal;HPM_P1;HPM_P2
2022/01/22 00:14:28;;;;;;;3.80;2.03;;;;;;;-4.06;100.00;94778.44;5088992;27;20528;-58
2022/01/22 00:16:56;;;;;;;4.00;2.33;;;;;;;-4.08;100.00;94799.22;5088812;28;20185;-62
2022/01/22 00:19:22;;;;;;;3.03;2.00;;;;;;;-4.06;100.00;94809.91;5088834;28;20190;-63
2022/01/22 00:21:48;;;;;;;3.03;1.77;;;;;;;-4.12;100.00;94808.38;5088935;28;20673;-60
2022/01/22 00:24:14;;;;;;;4.23;1.83;;;;;;;-4.10;100.00;94806.66;5088815;28;20199;-58
2022/01/22 00:26:42;;;;;;;4.07;2.27;;;;;;;-4.14;100.00;94802.63;5088814;28;20179;-57
2022/01/22 00:29:08;;;;;;;1.60;1.50;;;;;;;-4.22;99.57;94797.06;5088625;28;20218;-64
2022/01/22 00:31:34;;;;;;;6.03;1.90;;;;;;;-4.10;99.95;94804.19;5087383;28;20193;-62
2022/01/22 00:33:59;;;;;;;2.77;1.90;;;;;;;-4.09;100.00;94800.88;5088710;28;20378;-61
2022/01/22 00:36:25;;;;;;;3.50;1.93;;;;;;;-4.07;100.00;94790.91;5087041;28;20719;-61
2022/01/22 00:38:50;;;;;;;3.47;2.33;;;;;;;-4.17;100.00;94777.91;5087028;28;20196;-58
2022/01/22 00:41:16;;;;;;;3.63;2.00;;;;;;;-4.13;100.00;94788.56;5087049;28;20183;-61
2022/01/22 00:43:41;;;;;;;3.60;1.93;;;;;;;-4.14;100.00;94764.63;5087044;28;20570;-65
2022/01/22 00:46:07;;;;;;;2.60;1.73;;;;;;;-4.19;100.00;94758.97;5088450;28;20260;-63
2022/01/22 00:48:33;;;;;;;6.00;1.90;;;;;;;-4.14;100.00;94764.63;5088693;28;20196;-63
2022/01/22 00:51:00;;;;;;;5.50;2.20;;;;;;;-4.19;100.00;94786.25;5088021;28;20723;-58
2022/01/22 00:53:26;;;;;;;4.00;1.80;;;;;;;-4.13;100.00;94786.91;5086620;28;20203;-57
2022/01/22 00:55:51;;;;;;;2.40;1.70;;;;;;;-4.12;100.00;94795.97;5086806;28;20716;-60
2022/01/22 00:58:17;;;;;;;3.53;1.90;;;;;;;-4.09;100.00;94805.84;5088420;28;20243;-61
2022/01/22 01:00:43;;;;;;;1.97;1.37;;;;;;;-4.07;100.00;94809.09;5087988;28;20190;-62
2022/01/22 01:03:08;;;;;;;3.17;1.90;;;;;;;-4.13;100.00;94784.44;5088074;28;20208;-64
2022/01/22 01:05:34;;;;;;;7.27;2.00;;;;;;;-4.10;100.00;94799.22;5087837;28;20259;-59
2022/01/22 01:08:00;;;;;;;7.17;2.33;;;;;;;-4.06;99.69;94808.22;5087571;28;20219;-64
2022/01/22 01:10:26;;;;;;;2.27;1.73;;;;;;;-4.09;100.00;94793.41;5087724;28;20188;-62
2022/01/22 01:12:52;;;;;;;4.73;1.53;;;;;;;-4.03;99.91;94798.22;5087319;28;20576;-63
2022/01/22 01:34:17;;;;;;;5.77;2.10;;;;;;;-4.16;100.00;94762.16;5073687;28;20277;-58
2022/01/22 01:36:44;;;;;;;3.03;1.80;;;;;;;-4.19;99.84;94752.34;5074087;28;20212;-65
2022/01/22 01:39:14;;;;;;;3.93;1.80;;;;;;;-4.15;99.43;94778.69;5073647;28;20200;-62
2022/01/22 01:41:50;;;;;;;3.57;2.00;;;;;;;-4.20;99.15;94784.66;5073997;28;20337;-61
2022/01/22 01:44:16;;;;;;;3.10;1.77;;;;;;;-4.11;98.11;94807.53;5072584;28;20264;-61
2022/01/22 01:46:47;;;;;;;3.57;1.80;;;;;;;-4.08;98.83;94794.25;5073762;28;20192;-64
2022/01/22 01:49:13;;;;;;;3.03;1.77;;;;;;;-4.08;97.96;94789.28;5073491;28;20191;-64
2022/01/22 01:51:39;;;;;;;6.27;2.00;;;;;;;-4.12;97.40;94792.69;5055688;28;20180;-64
2022/01/22 01:54:23;;;;;;;5.77;1.93;;;;;;;-4.16;98.07;94777.06;5073337;28;20277;-65
2022/01/22 01:59:35;;;;;;;5.40;1.93;;;;;;;-4.20;98.51;94768.06;5073838;28;20207;-58
2022/01/22 02:02:01;;;;;;;8.80;1.70;;;;;;;-4.09;98.20;94768.59;5071916;28;20600;-64
2022/01/22 02:04:26;;;;;;;6.40;1.73;;;;;;;-4.11;98.64;94760.38;5073272;28;20599;-62
2022/01/22 02:06:52;;;;;;;4.13;1.87;;;;;;;-4.09;98.25;94777.72;5073217;28;20246;-63
2022/01/22 02:09:17;;;;;;;5.73;1.57;;;;;;;-4.03;97.69;94783.34;5073348;28;20198;-63
2022/01/22 02:11:45;;;;;;;5.00;1.90;;;;;;;-4.03;98.03;94777.53;5071707;28;20185;-57
2022/01/22 02:25:00;;;;;;;3.33;1.83;;;;;;;-4.00;98.11;94760.09;5072562;28;20183;-63
2022/01/22 02:27:26;;;;;;;2.47;1.50;;;;;;;-4.00;97.00;94773.31;5072781;28;20184;-64
2022/01/22 02:29:51;;;;;;;3.00;1.40;;;;;;;-3.96;97.00;94771.56;5071598;28;20238;-58
2022/01/22 02:35:19;;;;;;;3.23;1.40;;;;;;;-3.99;96.45;94777.44;5073016;28;20208;-61
2022/01/22 02:37:56;;;;;;;7.60;1.33;;;;;;;-3.89;96.69;94770.53;5071364;28;20306;-58
2022/01/22 02:40:28;;;;;;;12.60;1.60;;;;;;;-3.87;95.82;94798.63;5071305;28;20185;-62
2022/01/22 02:42:54;;;;;;;1.17;1.00;;;;;;;-3.92;95.91;94781.34;5072745;28;20236;-63
2022/01/22 02:45:22;;;;;;;2.37;1.57;;;;;;;-3.97;96.01;94770.75;5072495;28;20655;-58
2022/01/22 02:47:48;;;;;;;3.17;1.50;;;;;;;-4.06;96.55;94766.03;5071279;28;20713;-63
2022/01/22 02:50:15;;;;;;;2.93;1.50;;;;;;;-4.02;95.60;94794.09;5072295;28;20558;-62
2022/01/22 02:52:40;;;;;;;2.47;1.30;;;;;;;-4.19;95.57;94778.81;5070842;28;20617;-61
2022/01/22 02:55:08;;;;;;;6.00;1.37;;;;;;;-4.22;96.97;94754.09;5070952;28;20276;-58
2022/01/22 02:57:37;;;;;;;4.07;1.50;;;;;;;-4.12;97.58;94748.81;5070763;28;20512;-62
2022/01/22 03:00:06;;;;;;;1.97;1.33;;;;;;;-4.15;97.00;94753.88;5072138;28;20181;-62
2022/01/22 03:02:31;;;;;;;7.03;1.90;;;;;;;-4.22;96.66;94757.38;5072281;28;20230;-59
2022/01/22 03:04:57;;;;;;;4.90;2.13;;;;;;;-4.15;97.04;94748.09;5072044;28;20189;-62
2022/01/22 03:07:24;;;;;;;1.97;1.43;;;;;;;-4.18;96.89;94743.25;5072217;28;20197;-59
2022/01/22 03:09:51;;;;;;;4.23;1.83;;;;;;;-4.31;97.38;94741.09;5070762;28;20649;-61
2022/01/22 03:27:45;;;;;;;1.97;1.20;;;;;;;-4.06;94.91;94760.28;5072411;28;20257;-62
2022/01/22 03:30:10;;;;;;;2.70;1.50;;;;;;;-4.20;95.78;94725.88;5070347;28;20708;-60
2022/01/22 03:32:46;;;;;;;5.03;1.13;;;;;;;-4.14;94.26;94760.47;5071911;28;20189;-61
2022/01/22 03:37:41;;;;;;;3.53;1.40;;;;;;;-4.12;93.95;94753.00;5071780;28;20208;-62
2022/01/22 03:40:09;;;;;;;3.80;1.30;;;;;;;-4.23;93.94;94768.16;5070107;28;20655;-60
2022/01/22 03:42:35;;;;;;;2.27;1.60;;;;;;;-4.22;94.04;94739.22;5071460;28;20219;-59
2022/01/22 03:45:04;;;;;;;1.87;1.43;;;;;;;-4.25;94.84;94725.22;5071466;28;20278;-63
2022/01/22 03:47:30;;;;;;;6.07;2.00;;;;;;;-4.31;94.38;94723.72;5071647;28;20286;-64
2022/01/22 03:49:56;;;;;;;4.20;1.77;;;;;;;-4.41;93.96;94732.25;5070084;28;20264;-60
2022/01/22 03:52:21;;;;;;;1.30;1.10;;;;;;;-4.35;94.11;94728.78;5071456;28;20287;-61
2022/01/22 03:54:47;;;;;;;2.13;1.77;;;;;;;-4.32;94.20;94741.09;5071544;28;20183;-65
2022/01/22 03:57:12;;;;;;;2.97;1.53;;;;;;;-4.38;94.40;94728.88;5071263;28;20181;-64
2022/01/22 03:59:38;;;;;;;1.30;1.20;;;;;;;-4.22;94.15;94737.53;5071281;28;20277;-58
2022/01/22 04:04:55;;;;;;;4.27;1.57;;;;;;;-4.09;93.98;94743.78;5071612;28;20161;-64
2022/01/22 04:10:07;;;;;;;2.00;1.40;;;;;;;-4.18;91.97;94783.72;5071371;28;20176;-62
2022/01/22 04:12:59;;;;;;;1.30;1.13;;;;;;;-4.18;92.13;94777.97;5069688;28;20710;-60
2022/01/22 04:15:26;;;;;;;4.00;1.50;;;;;;;-4.15;91.78;94778.69;5069619;28;20197;-58
2022/01/22 04:28:57;;;;;;;2.33;0.97;;;;;;;-3.95;93.69;94719.41;5055014;28;20234;-61
2022/01/22 04:31:23;;;;;;;1.77;1.67;;;;;;;-3.91;93.78;94727.56;5071077;28;20173;-59
2022/01/22 04:33:49;;;;;;;2.77;1.20;;;;;;;-4.06;92.97;94723.84;5071190;28;20223;-62
2022/01/22 04:36:14;;;;;;;5.20;1.43;;;;;;;-4.01;93.62;94706.34;5069545;28;20657;-59
2022/01/22 04:38:40;;;;;;;2.13;1.40;;;;;;;-4.12;94.16;94695.94;5069448;28;20300;-63
2022/01/22 04:41:06;;;;;;;2.27;1.23;;;;;;;-4.07;94.59;94686.66;5069679;28;20169;-64
2022/01/22 04:43:34;;;;;;;2.63;1.50;;;;;;;-3.99;94.86;94700.50;5070774;28;20213;-63
2022/01/22 04:47:15;;;;;;;2.20;1.43;;;;;;;-4.03;94.98;94694.00;5070986;28;20176;-62
2022/01/22 04:49:09;;;;;;;3.50;1.23;;;;;;;-4.05;95.13;94678.34;5062835;28;20220;-64
2022/01/22 04:57:03;;;;;;;2.30;1.20;;;;;;;-3.85;95.95;94673.59;5073853;28;20267;-58
2022/01/22 04:59:28;;;;;;;5.43;1.63;;;;;;;-3.53;99.90;94613.84;5074570;28;20200;-64
2022/01/22 05:01:54;;;;;;;2.53;1.40;;;;;;;-3.33;99.53;94615.69;5075033;28;20205;-61
2022/01/22 05:04:19;;;;;;;3.50;1.47;;;;;;;-3.17;99.15;94621.78;5066051;23;20294;-61
2022/01/22 05:06:45;;;;;;;1.97;1.27;;;;;;;-3.31;96.71;94655.41;5056163;28;20181;-64
2022/01/22 05:09:13;;;;;;;2.97;1.80;;;;;;;-3.27;97.22;94651.97;5074023;28;20206;-62
2022/01/22 05:11:39;;;;;;;2.20;1.53;;;;;;;-3.16;96.47;94667.31;5072866;28;20181;-62
2022/01/22 05:14:04;;;;;;;2.30;1.70;;;;;;;-2.86;97.47;94661.34;5072645;28;20209;-63
2022/01/22 05:16:31;;;;;;;2.73;1.47;;;;;;;-2.77;97.72;94656.88;5073010;28;20204;-63
2022/01/22 05:19:05;;;;;;;3.57;1.20;;;;;;;-2.49;95.80;94686.63;5072858;28;20212;-59
2022/01/22 05:21:34;;;;;;;1.70;1.30;;;;;;;-2.42;96.80;94640.75;5073027;28;20234;-68
2022/01/22 05:24:04;;;;;;;2.77;1.90;;;;;;;-2.34;95.55;94670.34;5073035;28;20735;-65
2022/01/22 05:29:24;;;;;;;5.10;2.43;;;;;;;-2.23;96.34;94664.13;5074615;28;20211;-61
2022/01/22 05:39:24;;;;;;;11.27;3.27;;;;;;;-1.75;92.57;94738.75;5074217;28;20296;-64
2022/01/22 05:41:51;;;;;;;4.07;2.47;;;;;;;-1.84;92.83;94727.41;5073649;28;20211;-63
2022/01/22 05:44:17;;;;;;;3.90;2.50;;;;;;;-1.83;93.47;94719.09;5072665;28;20630;-62
2022/01/22 05:46:42;;;;;;;9.50;3.07;;;;;;;-1.81;94.77;94699.94;5073670;28;20178;-61
2022/01/22 05:49:08;;;;;;;7.67;3.20;;;;;;;-2.13;95.98;94672.91;5072370;28;20651;-61
2022/01/22 05:51:36;;;;;;;4.73;2.43;;;;;;;-1.85;96.84;94652.78;5072670;28;20193;-64
2022/01/22 05:59:40;;;;;;;8.07;3.77;;;;;;;-1.83;94.16;94703.34;5074216;28;20301;-58
2022/01/22 06:02:11;;;;;;;9.03;3.90;;;;;;;-2.33;96.75;94647.91;5071971;28;20206;-63
2022/01/22 06:04:37;;;;;;;7.77;4.10;;;;;;;-2.77;97.40;94623.75;5073671;28;20676;-60
2022/01/22 06:07:04;;;;;;;9.00;3.77;;;;;;;-2.55;97.65;94624.66;5073279;28;20197;-63
2022/01/22 06:09:32;;;;;;;5.97;3.07;;;;;;;-2.51;97.86;94621.19;5074122;28;20312;-69
2022/01/22 06:12:14;;;;;;;5.13;3.00;;;;;;;-2.69;98.37;94604.41;5072483;28;20178;-64
2022/01/22 06:14:40;;;;;;;8.43;3.37;;;;;;;-2.49;97.34;94631.88;5073100;28;20212;-61
2022/01/22 06:17:05;;;;;;;7.67;3.33;;;;;;;-2.70;98.98;94600.28;5072988;28;20655;-64
2022/01/22 06:19:31;;;;;;;7.67;3.67;;;;;;;-2.68;99.15;94593.59;5072868;28;20298;-61
2022/01/22 06:21:57;;;;;;;8.23;3.43;;;;;;;-2.97;100.00;94586.34;5073232;28;20797;-64
2022/01/22 06:24:23;;;;;;;7.27;3.40;;;;;;;-2.95;100.00;94579.63;5073473;28;20198;-64
2022/01/22 06:26:49;;;;;;;7.90;3.30;;;;;;;-2.95;100.00;94574.66;5073306;28;20670;-62
2022/01/22 06:29:15;;;;;;;6.13;3.07;;;;;;;-3.18;100.00;94579.59;5073125;28;20201;-65
2022/01/22 06:31:40;;;;;;;6.93;3.97;;;;;;;-2.93;100.00;94585.38;5072793;28;20190;-62
2022/01/22 06:34:06;;;;;;;9.13;3.97;;;;;;;-2.84;99.24;94618.19;5071818;28;20296;-63
2022/01/22 06:36:33;;;;;;;5.00;3.00;;;;;;;-2.20;100.00;94571.91;5073131;28;20198;-65
2022/01/22 06:39:16;;;;;;;10.87;3.53;;;;;;;-1.53;100.00;94587.56;5073973;28;20201;-62
2022/01/22 06:41:46;;;;;;;6.40;3.30;;;;;;;-1.80;100.00;94713.19;5071734;28;20172;-59
2022/01/22 06:44:20;;;;;;;10.40;3.50;;;;;;;-2.03;100.00;94674.19;5073672;28;20287;-62
2022/01/22 06:46:49;;;;;;;8.03;3.53;;;;;;;-2.45;100.00;94664.94;5055197;28;20724;-60
2022/01/22 06:49:15;;;;;;;4.37;3.10;;;;;;;-2.50;100.00;94646.88;5071897;28;20212;-58
2022/01/22 06:51:43;;;;;;;6.03;4.03;;;;;;;-2.43;100.00;94638.31;5071720;28;20715;-61
2022/01/22 06:54:11;;;;;;;6.37;4.00;;;;;;;-2.60;100.00;94631.44;5055151;28;20219;-59
2022/01/22 06:56:40;;;;;;;9.10;3.97;;;;;;;-2.57;100.00;94606.47;5071396;28;20182;-59
2022/01/22 06:59:10;;;;;;;10.17;4.50;;;;;;;-2.61;100.00;94614.91;5073227;28;20281;-65
2022/01/22 07:01:37;;;;;;;11.73;4.17;;;;;;;-2.48;100.00;94635.97;5073120;28;20555;-65
2022/01/22 07:04:09;;;;;;;6.53;3.83;;;;;;;-2.34;100.00;94628.84;5071209;28;20326;-60
2022/01/22 07:06:35;;;;;;;8.53;4.53;;;;;;;-2.34;100.00;94608.94;5072768;28;20202;-59
2022/01/22 07:09:01;;;;;;;12.70;4.57;;;;;;;-2.11;100.00;94650.44;5073216;28;20707;-60
2022/01/22 07:11:26;;;;;;;7.57;3.27;;;;;;;-1.87;100.00;94517.53;5054889;23;20319;-58
2022/01/22 07:13:52;;;;;;;14.00;6.00;;;;;;;-2.29;100.00;94639.47;5012955;28;20204;-63
2022/01/22 07:16:17;;;;;;;16.17;6.17;;;;;;;-2.14;100.00;94663.78;5012109;28;20198;-64
2022/01/22 07:18:43;;;;;;;12.63;6.80;;;;;;;-2.32;100.00;94637.06;5012602;28;20210;-59
2022/01/22 07:21:20;;;;;;;16.73;7.97;;;;;;;-2.30;100.00;94625.38;5012891;28;20285;-59
2022/01/22 07:26:14;;;;;;;14.90;8.77;;;;;;;-2.32;100.00;94627.13;5013315;28;20416;-58
2022/01/22 07:28:39;;;;;;;19.93;8.40;;;;;;;-2.29;100.00;94607.09;5011016;28;20211;-60
2022/01/22 07:31:07;;;;;;;17.17;7.07;;;;;;;-2.08;100.00;94612.97;5012562;28;20187;-59
2022/01/22 07:33:34;;;;;;;18.83;8.27;;;;;;;-2.09;100.00;94618.81;5011374;28;20707;-59
2022/01/22 07:36:02;;;;;;;6.87;3.50;;;;;;;-2.13;96.78;94677.06;5012638;28;20279;-60
2022/01/22 07:38:27;;;;;;;2.73;1.63;;;;;;;-2.74;95.38;94681.66;5012524;28;20336;-61
2022/01/22 07:40:53;;;;;;;2.97;2.20;;;;;;;-2.62;97.52;94635.66;5012342;28;20342;-63
2022/01/22 07:43:19;;;;;;;11.07;5.13;;;;;;;-2.18;100.00;94586.81;5012470;28;20258;-60
2022/01/22 07:45:47;;;;;;;12.03;4.80;;;;;;;-2.03;100.00;94572.09;5011030;28;20260;-60
2022/01/22 07:48:13;;;;;;;6.67;3.70;;;;;;;-1.81;98.64;94622.72;5012303;28;20685;-60
2022/01/22 07:50:38;;;;;;;6.07;3.30;;;;;;;-1.45;97.45;94642.91;5012617;28;20197;-63
2022/01/22 07:53:04;;;;;;;6.80;2.77;;;;;;;-1.74;95.53;94665.66;5060828;23;20730;-64
2022/01/22 07:55:30;;;;;;;3.70;2.13;;;;;;;-2.16;95.71;94645.59;5072210;28;20296;-64
2022/01/22 07:57:59;;;;;;;4.63;2.47;;;;;;;-1.85;95.37;94662.72;5072355;28;20204;-63
2022/01/22 08:00:25;;;;;;;2.93;1.80;;;;;;;-2.31;97.63;94610.50;5072391;28;20187;-62
2022/01/22 08:02:50;;;;;;;2.97;2.33;;;;;;;-1.95;99.21;94582.59;5072078;28;20216;-60
2022/01/22 08:05:19;;;;;;;4.23;2.43;;;;;;;-1.97;97.05;94629.13;5071913;28;20188;-64
2022/01/22 08:07:45;;;;;;;4.17;2.40;;;;;;;-2.17;95.84;94640.69;5071033;28;20200;-67
2022/01/22 08:10:12;;;;;;;4.93;1.97;;;;;;;-2.31;95.30;94646.16;5054366;28;20201;-65
2022/01/22 08:12:39;;;;;;;3.17;1.93;;;;;;;-2.06;95.10;94644.41;5072706;28;20175;-62
2022/01/22 08:15:08;;;;;;;2.97;1.70;;;;;;;-2.06;93.65;94661.03;5072001;28;20258;-66
2022/01/22 08:17:42;;;;;;;3.90;1.87;;;;;;;-2.19;91.62;94680.56;5077407;23;20218;-62
2022/01/22 08:20:09;;;;;;;3.57;1.57;;;;;;;-2.11;90.55;94696.06;5071906;28;20575;-65
2022/01/22 08:22:34;;;;;;;2.03;1.50;;;;;;;-2.22;90.42;94683.16;5070856;28;20211;-64
2022/01/22 08:25:01;;;;;;;3.60;1.73;;;;;;;-1.68;90.41;94694.50;5074883;28;20182;-63
2022/01/22 08:29:56;;;;;;;3.87;2.23;;;;;;;-1.47;88.55;94704.47;5076001;28;20178;-65
2022/01/22 08:37:43;;;;;;;5.43;2.80;;;;;;;-1.34;84.70;94732.25;5075876;28;20638;-60
2022/01/22 08:40:12;;;;;;;3.00;1.37;;;;;;;-1.40;86.24;94707.53;5076186;28;20193;-60
2022/01/22 08:42:38;;;;;;;4.03;1.40;;;;;;;-1.60;86.31;94682.56;5075656;28;20226;-63
2022/01/22 08:45:06;;;;;;;5.00;1.37;;;;;;;-1.08;85.77;94699.63;5009934;23;20622;-59
2022/01/22 08:47:37;;;;;;;2.73;1.70;;;;;;;-0.97;85.48;94707.50;4998062;28;20182;-61
2022/01/22 08:50:05;;;;;;;1.70;1.23;;;;;;;-0.95;83.97;94718.25;5015541;28;20189;-61
2022/01/22 08:52:34;;;;;;;5.53;1.70;;;;;;;-0.93;84.11;94729.75;5015578;28;20190;-63
2022/01/22 08:55:02;;;;;;;2.50;1.40;;;;;;;-1.03;84.49;94698.56;5016063;28;20190;-63
2022/01/22 08:57:27;;;;;;;4.33;1.57;;;;;;;-0.94;82.99;94729.81;5015802;28;20737;-59
2022/01/22 08:59:53;;;;;;;1.73;1.37;;;;;;;-0.79;83.00;94725.91;5014345;28;20185;-60
2022/01/22 09:02:19;;;;;;;7.30;1.60;;;;;;;-1.07;84.02;94713.72;5014992;28;20217;-62
2022/01/22 09:04:46;;;;;;;2.90;1.67;;;;;;;-1.53;85.12;94681.44;5013258;28;20247;-59
2022/01/22 09:07:12;;;;;;;3.20;1.53;;;;;;;-1.52;87.16;94660.66;5014942;28;20191;-62
2022/01/22 09:09:38;;;;;;;4.80;1.60;;;;;;;-1.33;87.19;94654.06;5015707;28;20199;-63
2022/01/22 09:12:07;;;;;;;2.20;1.43;;;;;;;-1.30;85.40;94677.22;5014538;28;20313;-63
2022/01/22 09:14:34;;;;;;;3.03;1.30;;;;;;;-1.83;87.31;94631.94;5015816;28;20211;-60
2022/01/22 09:17:00;;;;;;;4.70;1.50;;;;;;;-1.51;88.18;94613.25;5068480;23;20222;-66
2022/01/22 09:19:33;;;;;;;3.37;1.30;;;;;;;-1.54;86.06;94652.44;5071105;28;20656;-63
2022/01/22 09:22:02;;;;;;;2.40;1.80;;;;;;;-1.70;88.02;94605.66;5073787;28;20703;-66
2022/01/22 09:24:32;;;;;;;2.10;1.50;;;;;;;-1.53;88.58;94589.25;4997440;23;20230;-66
2022/01/22 09:27:01;;;;;;;3.60;2.00;;;;;;;-1.00;87.41;94600.38;4995679;28;20180;-60
2022/01/22 09:29:27;;;;;;;3.50;2.00;;;;;;;-0.46;84.75;94659.63;4995687;28;20705;-60
2022/01/22 09:31:54;;;;;;;7.13;2.17;;;;;;;-0.43;84.83;94655.34;4995185;28;20184;-67
2022/01/22 09:34:20;;;;;;;3.63;1.53;;;;;;;-0.44;84.04;94685.34;5010384;28;20581;-65
2022/01/22 09:36:46;;;;;;;3.50;1.80;;;;;;;-0.30;83.56;94683.91;5010477;28;20510;-60
2022/01/22 09:39:11;;;;;;;3.40;1.70;;;;;;;-1.02;83.84;94662.78;4995249;28;20313;-64
2022/01/22 09:41:37;;;;;;;3.57;1.70;;;;;;;-1.85;86.85;94575.56;4995528;28;20715;-66
2022/01/22 09:44:03;;;;;;;7.27;2.80;;;;;;;-1.43;86.44;94586.34;4994907;28;20636;-61
2022/01/22 09:46:30;;;;;;;3.40;1.90;;;;;;;-1.35;85.42;94596.00;5070705;23;20606;-61
2022/01/22 09:48:56;;;;;;;10.83;4.47;;;;;;;-0.83;84.01;94627.94;5074305;28;20277;-59
2022/01/22 09:51:28;;;;;;;2.40;1.60;;;;;;;-0.40;82.50;94660.19;5074707;28;20239;-63
2022/01/22 09:53:53;;;;;;;2.20;1.60;;;;;;;-0.53;73.66;94669.09;5073460;28;20311;-61
2022/01/22 09:56:23;;;;;;;3.83;1.50;;;;;;;-0.92;75.64;94634.13;5074272;28;20214;-65
2022/01/22 09:58:50;;;;;;;2.67;1.30;;;;;;;-0.76;77.13;94578.56;5073798;28;20203;-62
2022/01/22 10:01:21;;;;;;;1.43;1.00;;;;;;;-0.63;72.56;94682.81;5072438;28;20187;-63
2022/01/22 10:03:48;;;;;;;3.17;1.30;;;;;;;-1.01;73.16;94683.56;5072136;28;20276;-61
2022/01/22 10:06:20;;;;;;;1.87;1.23;;;;;;;-0.93;73.48;94691.56;5073423;28;20185;-66
2022/01/22 10:08:46;;;;;;;3.70;1.53;;;;;;;0.62;86.79;94491.41;5073554;28;20207;-66
2022/01/22 10:11:38;;;;;;;4.03;2.50;;;;;;;1.02;66.51;94762.97;5072430;28;20210;-63
2022/01/22 10:14:04;;;;;;;3.53;1.73;;;;;;;0.92;65.11;94769.28;5070032;28;20235;-63
2022/01/22 10:16:34;;;;;;;2.43;1.60;;;;;;;1.06;65.38;94742.75;5072316;28;20188;-65
2022/01/22 10:19:19;;;;;;;2.80;1.70;;;;;;;0.83;65.37;94713.78;5073353;28;20197;-60
2022/01/22 10:21:45;;;;;;;2.73;1.40;;;;;;;0.32;65.70;94702.84;5073107;28;20688;-61
2022/01/22 10:24:46;;;;;;;6.13;2.37;;;;;;;0.63;67.34;94653.06;5071554;28;20213;-65
2022/01/22 10:29:52;;;;;;;2.83;1.77;;;;;;;0.42;66.09;94674.06;5073349;28;20184;-61
2022/01/22 10:32:19;;;;;;;3.77;2.23;;;;;;;0.33;67.00;94644.47;5071664;28;20188;-66
2022/01/22 10:34:45;;;;;;;4.50;2.20;;;;;;;0.80;65.96;94668.09;5073206;28;20207;-62
2022/01/22 10:37:10;;;;;;;4.17;2.20;;;;;;;1.03;66.40;94647.78;5071579;28;20177;-61
2022/01/22 10:39:38;;;;;;;2.57;1.53;;;;;;;0.76;63.36;94719.16;5071506;28;20262;-65
2022/01/22 10:42:19;;;;;;;4.13;1.73;;;;;;;-0.46;66.23;94618.00;5072785;28;20690;-61
2022/01/22 10:44:48;;;;;;;3.87;2.00;;;;;;;-0.34;64.93;94669.91;5071220;28;20530;-61
2022/01/22 10:47:22;;;;;;;2.50;1.27;;;;;;;-0.19;65.54;94644.31;5071827;28;20582;-62
2022/01/22 10:49:48;;;;;;;1.93;1.20;;;;;;;0.10;64.11;94669.69;5072569;28;20181;-61
2022/01/22 10:52:14;;;;;;;1.43;1.30;;;;;;;0.34;63.99;94666.09;5071263;28;20179;-66
2022/01/22 10:54:40;;;;;;;2.50;1.80;;;;;;;0.98;65.36;94638.88;5071368;28;20725;-61
2022/01/22 10:57:13;;;;;;;2.17;1.37;;;;;;;0.64;63.01;94678.00;5072505;28;20249;-60
2022/01/22 10:59:52;;;;;;;4.10;1.73;;;;;;;1.17;62.55;94697.97;5072544;28;20234;-64
2022/01/22 11:02:30;;;;;;;3.83;1.63;;;;;;;1.00;62.36;94682.16;5072253;28;20223;-64
2022/01/22 11:04:56;;;;;;;4.00;2.13;;;;;;;0.95;62.67;94654.84;5072600;28;20688;-62
2022/01/22 11:07:22;;;;;;;4.77;2.57;;;;;;;1.66;62.09;94678.88;5070845;28;20184;-62
2022/01/22 11:09:48;;;;;;;3.47;1.90;;;;;;;1.83;59.86;94721.44;5072363;28;20185;-61
2022/01/22 11:12:13;;;;;;;2.30;1.90;;;;;;;1.33;59.20;94710.59;5072488;28;20267;-61
2022/01/22 11:14:40;;;;;;;5.93;1.97;;;;;;;1.17;59.49;94685.47;5072095;28;20205;-59
2022/01/22 11:17:07;;;;;;;2.53;1.73;;;;;;;1.27;59.79;94675.84;5072104;28;20183;-65
2022/01/22 11:19:34;;;;;;;3.37;1.80;;;;;;;0.95;60.65;94669.06;5072245;28;20250;-61
2022/01/22 11:22:08;;;;;;;3.33;1.30;;;;;;;0.89;60.78;94656.84;5072032;28;20173;-60
2022/01/22 11:24:37;;;;;;;5.23;1.53;;;;;;;1.08;59.91;94665.91;5072106;28;20192;-61
2022/01/22 11:27:04;;;;;;;2.23;1.30;;;;;;;1.19;59.85;94667.91;5072037;28;20185;-63
2022/01/22 11:29:57;;;;;;;3.23;1.83;;;;;;;0.89;59.97;94659.34;5071037;28;20221;-61
2022/01/22 11:32:34;;;;;;;2.37;1.47;;;;;;;0.73;59.64;94670.06;5070023;28;20257;-61
2022/01/22 11:35:04;;;;;;;3.00;1.70;;;;;;;0.23;61.01;94618.25;5072300;28;20216;-60
2022/01/22 11:38:10;;;;;;;1.77;1.40;;;;;;;0.08;62.12;94584.00;5071924;28;20186;-62
2022/01/22 11:40:37;;;;;;;1.80;1.60;;;;;;;-0.14;63.10;94564.97;4990411;28;20574;-60
2022/01/22 11:43:07;;;;;;;1.70;1.27;;;;;;;-0.37;64.33;94545.22;4990444;28;20305;-66
2022/01/22 11:45:36;;;;;;;4.10;1.40;;;;;;;-0.49;65.86;94510.00;5022900;28;20214;-65
2022/01/22 11:48:09;;;;;;;3.60;1.43;;;;;;;-0.68;66.99;94472.56;5070142;28;20211;-61
2022/01/22 11:50:35;;;;;;;3.17;1.83;;;;;;;-0.87;68.43;94455.13;5072123;28;20712;-65
2022/01/22 11:53:22;;;;;;;3.40;2.00;;;;;;;-0.75;68.63;94450.47;5071705;28;20195;-64
2022/01/22 11:56:10;;;;;;;3.17;1.70;;;;;;;-0.75;69.79;94416.34;5070677;28;20189;-62
2022/01/22 11:58:57;;;;;;;5.27;2.47;;;;;;;-0.56;70.41;94424.63;5069848;28;20686;-64
2022/01/22 12:01:38;;;;;;;6.57;2.17;;;;;;;-0.37;71.14;94405.44;5072166;28;20183;-60
2022/01/22 12:04:05;;;;;;;4.77;2.63;;;;;;;-0.48;71.79;94386.81;5071322;28;20314;-62
2022/01/22 12:06:31;;;;;;;4.33;2.23;;;;;;;-0.46;72.45;94385.88;5071985;28;20645;-60
2022/01/22 12:09:16;;;;;;;3.10;2.17;;;;;;;-0.78;73.96;94354.13;5071390;28;20796;-65
2022/01/22 12:14:51;;;;;;;2.93;1.87;;;;;;;-0.97;75.20;94330.91;5071657;28;20214;-61
2022/01/22 12:17:40;;;;;;;3.00;1.80;;;;;;;-1.18;75.13;94331.88;5070012;28;20217;-63
2022/01/22 12:20:19;;;;;;;3.50;2.07;;;;;;;-1.08;76.53;94325.59;5071347;28;20181;-64
2022/01/22 12:22:48;;;;;;;5.60;2.30;;;;;;;-1.19;75.93;94335.25;5070028;28;20223;-63
2022/01/22 12:25:22;;;;;;;6.30;2.20;;;;;;;-1.18;77.94;94320.22;5071353;28;20187;-64
2022/01/22 12:27:55;;;;;;;2.87;2.03;;;;;;;-1.09;81.42;94282.38;5071316;28;20201;-63
2022/01/22 12:30:43;;;;;;;3.63;1.63;;;;;;;-1.26;81.49;94308.97;5071502;28;20265;-65
2022/01/22 12:33:15;;;;;;;4.30;1.87;;;;;;;-1.13;82.56;94320.00;5071082;28;20675;-60
2022/01/22 12:35:43;;;;;;;5.00;2.23;;;;;;;-1.24;82.88;94314.69;5071518;28;20219;-63
2022/01/22 12:41:14;;;;;;;4.10;2.17;;;;;;;-1.17;85.20;94314.34;5076169;23;20236;-64
2022/01/22 12:43:43;;;;;;;5.73;1.90;;;;;;;-1.44;88.91;94300.63;5071113;28;20606;-61
2022/01/22 12:46:08;;;;;;;2.67;2.23;;;;;;;-1.34;90.67;94316.78;5069784;28;20214;-59
2022/01/22 12:48:38;;;;;;;6.97;3.03;;;;;;;-1.57;93.01;94258.88;5069616;28;20245;-65
2022/01/22 12:51:06;;;;;;;3.73;2.70;;;;;;;-1.21;92.48;94307.09;5081544;23;20384;-63
2022/01/22 12:53:34;;;;;;;3.67;2.27;;;;;;;-1.23;88.69;94344.53;5070808;28;20198;-59
2022/01/22 12:56:35;;;;;;;6.70;2.90;;;;;;;-1.17;89.66;94329.28;5071354;28;20207;-62
2022/01/22 12:58:48;;;;;;;5.43;2.60;;;;;;;-1.19;87.58;94338.53;5071090;28;20213;-65
2022/01/22 13:01:22;;;;;;;4.67;2.23;;;;;;;-1.41;87.31;94345.34;5071475;28;20181;-64
2022/01/22 13:03:50;;;;;;;4.40;2.17;;;;;;;-1.46;84.14;94362.19;5071107;28;20218;-61
2022/01/22 13:06:18;;;;;;;4.10;2.30;;;;;;;-1.49;84.89;94346.53;5071217;28;20192;-66
2022/01/22 13:08:44;;;;;;;4.40;2.30;;;;;;;-1.10;85.39;94324.84;5070733;28;20214;-60
2022/01/22 13:11:11;;;;;;;2.80;1.73;;;;;;;-0.82;79.24;94414.19;5074275;28;20184;-62
2022/01/22 13:13:39;;;;;;;2.73;1.77;;;;;;;-0.91;77.80;94430.41;5072934;28;20197;-62
2022/01/22 13:16:09;;;;;;;2.83;1.70;;;;;;;-0.77;77.20;94423.09;5074772;28;20191;-59
2022/01/22 13:18:50;;;;;;;3.53;2.10;;;;;;;-0.97;76.99;94406.50;5074557;28;20192;-62
2022/01/22 13:21:20;;;;;;;3.87;1.73;;;;;;;-0.80;78.16;94382.50;5073991;28;20183;-62
2022/01/22 13:24:05;;;;;;;5.63;2.57;;;;;;;-0.66;76.96;94398.47;5072595;28;20722;-62
2022/01/22 13:26:40;;;;;;;4.57;1.57;;;;;;;-0.69;75.57;94420.25;5074072;28;20188;-62
2022/01/22 13:29:26;;;;;;;4.93;2.70;;;;;;;-0.75;76.09;94400.56;5074633;28;20708;-61
2022/01/22 13:32:49;;;;;;;4.43;2.23;;;;;;;-0.93;78.08;94369.78;5072713;28;20262;-63
2022/01/22 13:49:09;;;;;;;6.47;2.93;;;;;;;-0.99;77.66;94370.84;5074030;28;20258;-62
2022/01/22 13:51:34;;;;;;;5.77;2.70;;;;;;;-0.66;79.18;94346.06;5074398;28;20190;-61
2022/01/22 13:54:01;;;;;;;4.47;2.13;;;;;;;-0.80;77.37;94380.81;5078537;23;20732;-65
2022/01/22 13:56:57;;;;;;;2.83;2.00;;;;;;;-0.64;77.41;94375.91;5073712;28;20267;-62
2022/01/22 13:59:26;;;;;;;4.93;2.60;;;;;;;-0.79;77.11;94372.47;5071710;28;20220;-62